sensor_id;sensor_type;location;lat;lon;timestamp;pressure;altitude;pressure_sealevel;temperature;humidity
60852;BME280;48553;50.766;2.900;2023-02-01T00:02:41;101683.00;;;6.27;95.48
60852;BME280;48553;50.766;2.900;2023-02-01T00:05:42;101692.56;;;6.25;95.44
60852;BME280;48553;50.766;2.900;2023-02-01T00:08:42;101692.56;;;6.25;95.35
60852;BME280;48553;50.766;2.900;2023-02-01T00:11:43;101689.00;;;6.24;95.15
60852;BME280;48553;50.766;2.900;2023-02-01T00:14:43;101683.34;;;6.21;95.14
60852;BME280;48553;50.766;2.900;2023-02-01T00:17:44;101691.22;;;6.22;95.06
60852;BME280;48553;50.766;2.900;2023-02-01T00:20:47;101684.94;;;6.22;94.86
60852;BME280;48553;50.766;2.900;2023-02-01T00:23:48;101679.81;;;6.20;94.61
60852;BME280;48553;50.766;2.900;2023-02-01T00:26:48;101678.69;;;6.21;94.45
60852;BME280;48553;50.766;2.900;2023-02-01T00:29:49;101669.19;;;6.19;94.84
60852;BME280;48553;50.766;2.900;2023-02-01T00:32:49;101658.56;;;6.17;94.82
60852;BME280;48553;50.766;2.900;2023-02-01T00:35:50;101654.78;;;6.18;94.67
60852;BME280;48553;50.766;2.900;2023-02-01T00:38:50;101656.69;;;6.18;94.27
60852;BME280;48553;50.766;2.900;2023-02-01T00:41:50;101643.34;;;6.16;94.26
60852;BME280;48553;50.766;2.900;2023-02-01T00:44:51;101638.72;;;6.17;93.99
60852;BME280;48553;50.766;2.900;2023-02-01T00:47:51;101662.69;;;6.15;93.95
60852;BME280;48553;50.766;2.900;2023-02-01T00:50:52;101654.81;;;6.13;93.80
60852;BME280;48553;50.766;2.900;2023-02-01T00:53:53;101643.09;;;6.13;93.43
60852;BME280;48553;50.766;2.900;2023-02-01T00:56:53;101640.41;;;6.07;93.57
60852;BME280;48553;50.766;2.900;2023-02-01T00:59:54;101643.16;;;6.07;93.48
60852;BME280;48553;50.766;2.900;2023-02-01T01:02:54;101651.59;;;6.06;93.22
60852;BME280;48553;50.766;2.900;2023-02-01T01:05:57;101649.97;;;6.05;93.23
60852;BME280;48553;50.766;2.900;2023-02-01T01:08:59;101651.63;;;6.01;93.35
60852;BME280;48553;50.766;2.900;2023-02-01T01:12:00;101652.19;;;5.98;93.31
60852;BME280;48553;50.766;2.900;2023-02-01T01:15:03;101657.09;;;5.96;93.04
60852;BME280;48553;50.766;2.900;2023-02-01T01:18:04;101658.72;;;5.97;92.87
60852;BME280;48553;50.766;2.900;2023-02-01T01:21:06;101659.81;;;5.96;92.94
60852;BME280;48553;50.766;2.900;2023-02-01T01:24:07;101653.00;;;5.93;92.75
60852;BME280;48553;50.766;2.900;2023-02-01T01:27:07;101668.53;;;5.93;92.64
60852;BME280;48553;50.766;2.900;2023-02-01T01:30:08;101668.53;;;5.88;92.52
60852;BME280;48553;50.766;2.900;2023-02-01T01:33:09;101668.53;;;5.88;92.61
60852;BME280;48553;50.766;2.900;2023-02-01T01:36:10;101677.81;;;5.86;92.24
60852;BME280;48553;50.766;2.900;2023-02-01T01:39:11;101680.25;;;5.83;92.08
60852;BME280;48553;50.766;2.900;2023-02-01T01:42:12;101696.31;;;5.84;91.74
60852;BME280;48553;50.766;2.900;2023-02-01T01:45:28;101702.88;;;5.78;91.51
60852;BME280;48553;50.766;2.900;2023-02-01T01:48:29;101699.88;;;5.80;91.67
60852;BME280;48553;50.766;2.900;2023-02-01T01:51:33;101698.53;;;5.77;91.59
60852;BME280;48553;50.766;2.900;2023-02-01T01:54:41;101698.00;;;5.75;91.20
60852;BME280;48553;50.766;2.900;2023-02-01T01:57:50;101692.28;;;5.77;91.16
60852;BME280;48553;50.766;2.900;2023-02-01T02:00:52;101692.56;;;5.75;91.17
60852;BME280;48553;50.766;2.900;2023-02-01T02:03:54;101683.88;;;5.73;90.81
60852;BME280;48553;50.766;2.900;2023-02-01T02:07:00;101686.31;;;5.70;91.16
60852;BME280;48553;50.766;2.900;2023-02-01T02:10:05;101680.88;;;5.70;90.68
60852;BME280;48553;50.766;2.900;2023-02-01T02:13:06;101676.53;;;5.69;90.73
60852;BME280;48553;50.766;2.900;2023-02-01T02:32:33;101657.53;;;5.58;89.87
60852;BME280;48553;50.766;2.900;2023-02-01T02:42:43;101647.50;;;5.54;89.81
60852;BME280;48553;50.766;2.900;2023-02-01T02:46:21;101656.22;;;5.51;89.98
60852;BME280;48553;50.766;2.900;2023-02-01T02:50:37;101655.97;;;5.52;90.09
60852;BME280;48553;50.766;2.900;2023-02-01T02:53:35;101660.06;;;5.50;90.14
60852;BME280;48553;50.766;2.900;2023-02-01T02:56:58;101650.81;;;5.46;90.01
60852;BME280;48553;50.766;2.900;2023-02-01T03:00:21;101658.19;;;5.45;89.79
60852;BME280;48553;50.766;2.900;2023-02-01T03:03:43;101659.50;;;5.42;89.99
60852;BME280;48553;50.766;2.900;2023-02-01T03:11:07;101655.44;;;5.40;89.60
60852;BME280;48553;50.766;2.900;2023-02-01T03:14:08;101654.66;;;5.39;89.95
60852;BME280;48553;50.766;2.900;2023-02-01T03:17:14;101662.84;;;5.34;89.64
60852;BME280;48553;50.766;2.900;2023-02-01T03:20:18;101657.09;;;5.36;89.73
60852;BME280;48553;50.766;2.900;2023-02-01T03:23:26;101660.38;;;5.33;89.58
60852;BME280;48553;50.766;2.900;2023-02-01T03:26:31;101654.41;;;5.31;89.73
60852;BME280;48553;50.766;2.900;2023-02-01T03:30:14;101656.06;;;5.32;89.73
60852;BME280;48553;50.766;2.900;2023-02-01T03:33:20;101650.88;;;5.30;89.73
60852;BME280;48553;50.766;2.900;2023-02-01T03:36:35;101661.22;;;5.28;89.85
60852;BME280;48553;50.766;2.900;2023-02-01T03:40:07;101652.25;;;5.28;89.60
60852;BME280;48553;50.766;2.900;2023-02-01T03:43:11;101656.88;;;5.27;89.63
60852;BME280;48553;50.766;2.900;2023-02-01T03:46:30;101653.63;;;5.25;89.57
60852;BME280;48553;50.766;2.900;2023-02-01T03:50:04;101653.09;;;5.23;89.87
60852;BME280;48553;50.766;2.900;2023-02-01T03:53:05;101655.25;;;5.21;89.86
60852;BME280;48553;50.766;2.900;2023-02-01T03:56:07;101653.13;;;5.18;89.75
60852;BME280;48553;50.766;2.900;2023-02-01T03:59:08;101646.84;;;5.17;89.60
60852;BME280;48553;50.766;2.900;2023-02-01T04:02:08;101653.13;;;5.18;89.69
60852;BME280;48553;50.766;2.900;2023-02-01T04:05:09;101653.13;;;5.18;89.88
60852;BME280;48553;50.766;2.900;2023-02-01T04:08:09;101658.28;;;5.14;89.79
60852;BME280;48553;50.766;2.900;2023-02-01T04:11:09;101666.97;;;5.16;89.82
60852;BME280;48553;50.766;2.900;2023-02-01T04:14:11;101657.47;;;5.14;89.55
60852;BME280;48553;50.766;2.900;2023-02-01T04:17:11;101660.72;;;5.11;89.90
60852;BME280;48553;50.766;2.900;2023-02-01T04:20:12;101654.47;;;5.10;89.83
60852;BME280;48553;50.766;2.900;2023-02-01T04:23:12;101646.06;;;5.12;89.82
60852;BME280;48553;50.766;2.900;2023-02-01T04:26:13;101649.84;;;5.11;89.86
60852;BME280;48553;50.766;2.900;2023-02-01T04:29:13;101651.50;;;5.07;89.63
60852;BME280;48553;50.766;2.900;2023-02-01T04:32:13;101646.34;;;5.05;89.84
60852;BME280;48553;50.766;2.900;2023-02-01T04:35:15;101647.16;;;5.06;89.76
60852;BME280;48553;50.766;2.900;2023-02-01T04:38:18;101645.00;;;5.02;89.99
60852;BME280;48553;50.766;2.900;2023-02-01T04:41:19;101654.22;;;5.01;89.91
60852;BME280;48553;50.766;2.900;2023-02-01T04:44:20;101670.53;;;5.01;89.81
60852;BME280;48553;50.766;2.900;2023-02-01T04:47:20;101666.19;;;5.00;90.07
60852;BME280;48553;50.766;2.900;2023-02-01T04:50:21;101677.06;;;5.00;90.02
60852;BME280;48553;50.766;2.900;2023-02-01T04:53:21;101674.34;;;5.00;89.75
60852;BME280;48553;50.766;2.900;2023-02-01T04:56:22;101686.03;;;4.96;89.86
60852;BME280;48553;50.766;2.900;2023-02-01T04:59:22;101681.41;;;4.96;89.88
60852;BME280;48553;50.766;2.900;2023-02-01T05:02:22;101681.41;;;4.96;90.01
60852;BME280;48553;50.766;2.900;2023-02-01T05:05:23;101686.84;;;4.96;89.81
60852;BME280;48553;50.766;2.900;2023-02-01T05:08:24;101683.59;;;4.94;89.87
60852;BME280;48553;50.766;2.900;2023-02-01T05:11:25;101680.59;;;4.96;90.06
60852;BME280;48553;50.766;2.900;2023-02-01T05:14:44;101690.13;;;4.93;89.80
60852;BME280;48553;50.766;2.900;2023-02-01T05:17:45;101693.09;;;4.92;90.18
60852;BME280;48553;50.766;2.900;2023-02-01T05:20:45;101685.22;;;4.90;89.98
60852;BME280;48553;50.766;2.900;2023-02-01T05:23:46;101690.66;;;4.90;90.08
60852;BME280;48553;50.766;2.900;2023-02-01T05:27:04;101677.34;;;4.89;89.93
60852;BME280;48553;50.766;2.900;2023-02-01T05:30:05;101674.91;;;4.87;89.89
60852;BME280;48553;50.766;2.900;2023-02-01T05:33:06;101678.44;;;4.88;89.98
60852;BME280;48553;50.766;2.900;2023-02-01T05:36:07;101689.59;;;4.86;89.78
60852;BME280;48553;50.766;2.900;2023-02-01T05:39:07;101686.88;;;4.86;89.66
60852;BME280;48553;50.766;2.900;2023-02-01T05:42:08;101688.75;;;4.86;89.96
60852;BME280;48553;50.766;2.900;2023-02-01T05:45:08;101691.75;;;4.84;89.98
60852;BME280;48553;50.766;2.900;2023-02-01T05:48:09;101693.13;;;4.81;89.68
60852;BME280;48553;50.766;2.900;2023-02-01T05:51:10;101694.19;;;4.80;89.83
60852;BME280;48553;50.766;2.900;2023-02-01T05:54:11;101689.56;;;4.81;90.06
60852;BME280;48553;50.766;2.900;2023-02-01T05:57:11;101687.41;;;4.78;89.83
60852;BME280;48553;50.766;2.900;2023-02-01T06:00:13;101687.41;;;4.78;89.89
60852;BME280;48553;50.766;2.900;2023-02-01T06:03:13;101677.66;;;4.77;90.01
60852;BME280;48553;50.766;2.900;2023-02-01T06:06:14;101684.97;;;4.76;89.91
60852;BME280;48553;50.766;2.900;2023-02-01T06:09:14;101677.38;;;4.73;89.72
60852;BME280;48553;50.766;2.900;2023-02-01T06:12:14;101683.63;;;4.69;89.69
60852;BME280;48553;50.766;2.900;2023-02-01T06:15:15;101686.88;;;4.71;89.81
60852;BME280;48553;50.766;2.900;2023-02-01T06:18:16;101688.78;;;4.70;89.66
60852;BME280;48553;50.766;2.900;2023-02-01T06:21:17;101692.03;;;4.67;89.93
60852;BME280;48553;50.766;2.900;2023-02-01T06:24:23;101702.63;;;4.69;89.64
60852;BME280;48553;50.766;2.900;2023-02-01T06:27:24;101705.06;;;4.65;89.69
60852;BME280;48553;50.766;2.900;2023-02-01T06:30:25;101700.19;;;4.62;89.74
60852;BME280;48553;50.766;2.900;2023-02-01T06:33:25;101692.03;;;4.62;89.98
60852;BME280;48553;50.766;2.900;2023-02-01T06:36:26;101686.06;;;4.65;89.84
60852;BME280;48553;50.766;2.900;2023-02-01T06:39:26;101682.00;;;4.63;89.91
60852;BME280;48553;50.766;2.900;2023-02-01T06:42:28;101692.03;;;4.62;89.89
60852;BME280;48553;50.766;2.900;2023-02-01T06:45:29;101688.25;;;4.58;89.73
60852;BME280;48553;50.766;2.900;2023-02-01T06:48:30;101689.88;;;4.59;89.85
60852;BME280;48553;50.766;2.900;2023-02-01T06:51:30;101676.03;;;4.60;89.94
60852;BME280;48553;50.766;2.900;2023-02-01T06:54:31;101693.16;;;4.61;89.80
60852;BME280;48553;50.766;2.900;2023-02-01T06:57:33;101695.56;;;4.57;89.79
60852;BME280;48553;50.766;2.900;2023-02-01T07:00:35;101695.84;;;4.56;89.80
60852;BME280;48553;50.766;2.900;2023-02-01T07:03:36;101694.22;;;4.55;89.86
60852;BME280;48553;50.766;2.900;2023-02-01T07:06:37;101688.78;;;4.55;90.03
60852;BME280;48553;50.766;2.900;2023-02-01T07:09:38;101696.94;;;4.55;89.96
60852;BME280;48553;50.766;2.900;2023-02-01T07:12:39;101691.22;;;4.56;89.94
60852;BME280;48553;50.766;2.900;2023-02-01T07:15:39;101688.00;;;4.54;90.02
60852;BME280;48553;50.766;2.900;2023-02-01T07:18:40;101698.56;;;4.56;89.83
60852;BME280;48553;50.766;2.900;2023-02-01T07:21:40;101700.72;;;4.54;89.97
60852;BME280;48553;50.766;2.900;2023-02-01T07:24:41;101701.81;;;4.53;90.04
60852;BME280;48553;50.766;2.900;2023-02-01T07:27:41;101705.34;;;4.53;90.24
60852;BME280;48553;50.766;2.900;2023-02-01T07:30:41;101702.88;;;4.52;90.34
60852;BME280;48553;50.766;2.900;2023-02-01T07:33:42;101708.59;;;4.55;90.27
60852;BME280;48553;50.766;2.900;2023-02-01T07:36:42;101711.59;;;4.59;90.28
60852;BME280;48553;50.766;2.900;2023-02-01T07:39:43;101705.34;;;4.58;90.24
60852;BME280;48553;50.766;2.900;2023-02-01T07:42:43;101711.31;;;4.60;90.33
60852;BME280;48553;50.766;2.900;2023-02-01T07:45:50;101719.19;;;4.62;90.37
60852;BME280;48553;50.766;2.900;2023-02-01T07:48:51;101725.16;;;4.64;90.39
60852;BME280;48553;50.766;2.900;2023-02-01T07:51:51;101727.06;;;4.69;90.29
60852;BME280;48553;50.766;2.900;2023-02-01T07:54:52;101731.13;;;4.71;90.22
60852;BME280;48553;50.766;2.900;2023-02-01T07:57:52;101728.41;;;4.76;90.10
60852;BME280;48553;50.766;2.900;2023-02-01T08:00:53;101732.50;;;4.74;90.45
60852;BME280;48553;50.766;2.900;2023-02-01T08:04:13;101744.16;;;4.69;90.78
60852;BME280;48553;50.766;2.900;2023-02-01T08:07:13;101738.72;;;4.69;91.11
60852;BME280;48553;50.766;2.900;2023-02-01T08:10:14;101737.94;;;4.69;91.09
60852;BME280;48553;50.766;2.900;2023-02-01T08:13:14;101739.84;;;4.68;91.11
60852;BME280;48553;50.766;2.900;2023-02-01T08:16:16;101749.59;;;4.69;91.05
60852;BME280;48553;50.766;2.900;2023-02-01T08:19:17;101741.44;;;4.69;91.35
60852;BME280;48553;50.766;2.900;2023-02-01T08:22:17;101730.03;;;4.72;91.40
60852;BME280;48553;50.766;2.900;2023-02-01T08:25:18;101726.25;;;4.73;91.31
60852;BME280;48553;50.766;2.900;2023-02-01T08:28:19;101729.78;;;4.74;91.32
60852;BME280;48553;50.766;2.900;2023-02-01T08:31:21;101720.56;;;4.75;91.43
60852;BME280;48553;50.766;2.900;2023-02-01T08:34:23;101726.53;;;4.77;91.62
60852;BME280;48553;50.766;2.900;2023-02-01T08:37:23;101732.47;;;4.79;91.53
60852;BME280;48553;50.766;2.900;2023-02-01T08:40:23;101723.53;;;4.78;91.45
60852;BME280;48553;50.766;2.900;2023-02-01T08:43:24;101726.53;;;4.82;91.64
60852;BME280;48553;50.766;2.900;2023-02-01T08:46:24;101728.13;;;4.83;91.68
60852;BME280;48553;50.766;2.900;2023-02-01T08:49:25;101717.56;;;4.87;91.64
60852;BME280;48553;50.766;2.900;2023-02-01T08:52:25;101718.66;;;4.91;91.60
60852;BME280;48553;50.766;2.900;2023-02-01T08:55:26;101714.28;;;4.90;91.62
60852;BME280;48553;50.766;2.900;2023-02-01T08:58:26;101714.81;;;4.92;91.80
60852;BME280;48553;50.766;2.900;2023-02-01T09:01:27;101723.81;;;4.97;91.52
60852;BME280;48553;50.766;2.900;2023-02-01T09:04:27;101724.84;;;5.01;91.48
60852;BME280;48553;50.766;2.900;2023-02-01T09:07:28;101735.19;;;5.05;91.42
60852;BME280;48553;50.766;2.900;2023-02-01T09:10:28;101730.56;;;5.05;91.43
60852;BME280;48553;50.766;2.900;2023-02-01T09:13:28;101728.94;;;5.09;91.43
60852;BME280;48553;50.766;2.900;2023-02-01T09:16:29;101727.56;;;5.12;91.35
60852;BME280;48553;50.766;2.900;2023-02-01T09:19:29;101728.13;;;5.14;91.44
60852;BME280;48553;50.766;2.900;2023-02-01T09:22:29;101734.06;;;5.21;91.25
60852;BME280;48553;50.766;2.900;2023-02-01T09:25:30;101732.69;;;5.23;90.94
60852;BME280;48553;50.766;2.900;2023-02-01T09:28:31;101729.41;;;5.37;90.64
60852;BME280;48553;50.766;2.900;2023-02-01T09:31:31;101716.06;;;5.40;90.25
60852;BME280;48553;50.766;2.900;2023-02-01T09:34:32;101727.78;;;5.41;90.29
60852;BME280;48553;50.766;2.900;2023-02-01T09:37:33;101718.78;;;5.40;90.17
60852;BME280;48553;50.766;2.900;2023-02-01T09:40:34;101737.81;;;5.40;90.53
60852;BME280;48553;50.766;2.900;2023-02-01T09:43:41;101723.94;;;5.42;90.31
60852;BME280;48553;50.766;2.900;2023-02-01T09:46:47;101708.16;;;5.49;90.02
60852;BME280;48553;50.766;2.900;2023-02-01T09:50:11;101723.63;;;5.64;89.83
60852;BME280;48553;50.766;2.900;2023-02-01T09:53:35;101725.13;;;5.91;89.10
60852;BME280;48553;50.766;2.900;2023-02-01T09:59:52;101721.22;;;6.52;87.42
60852;BME280;48553;50.766;2.900;2023-02-01T10:02:55;101713.97;;;6.71;86.84
60852;BME280;48553;50.766;2.900;2023-02-01T10:26:22;101741.47;;;7.04;85.80
60852;BME280;48553;50.766;2.900;2023-02-01T10:29:25;101736.31;;;7.02;86.21
60852;BME280;48553;50.766;2.900;2023-02-01T10:32:31;101736.38;;;6.97;86.03
60852;BME280;48553;50.766;2.900;2023-02-01T10:35:34;101741.56;;;6.94;86.14
60852;BME280;48553;50.766;2.900;2023-02-01T10:38:36;101755.94;;;6.99;86.06
60852;BME280;48553;50.766;2.900;2023-02-01T10:41:39;101741.25;;;7.00;85.91
60852;BME280;48553;50.766;2.900;2023-02-01T10:44:42;101743.16;;;7.00;86.15
60852;BME280;48553;50.766;2.900;2023-02-01T10:47:43;101731.41;;;7.04;86.18
60852;BME280;48553;50.766;2.900;2023-02-01T10:51:07;101727.63;;;7.24;85.93
60852;BME280;48553;50.766;2.900;2023-02-01T10:54:19;101733.22;;;7.38;85.20
60852;BME280;48553;50.766;2.900;2023-02-01T10:57:23;101736.41;;;7.69;84.49
60852;BME280;48553;50.766;2.900;2023-02-01T11:00:26;101735.41;;;8.03;84.00
60852;BME280;48553;50.766;2.900;2023-02-01T11:03:37;101747.97;;;8.23;83.38
60852;BME280;48553;50.766;2.900;2023-02-01T11:06:43;101729.13;;;8.22;82.91
60852;BME280;48553;50.766;2.900;2023-02-01T11:09:53;101738.91;;;8.28;83.33
60852;BME280;48553;50.766;2.900;2023-02-01T11:13:02;101723.13;;;8.44;82.54
60852;BME280;48553;50.766;2.900;2023-02-01T11:16:04;101729.81;;;8.70;82.13
60852;BME280;48553;50.766;2.900;2023-02-01T11:19:05;101719.81;;;8.80;82.00
60852;BME280;48553;50.766;2.900;2023-02-01T11:22:05;101706.84;;;8.85;81.71
60852;BME280;48553;50.766;2.900;2023-02-01T11:25:09;101706.06;;;8.98;81.94
60852;BME280;48553;50.766;2.900;2023-02-01T11:28:10;101719.69;;;9.17;81.22
60852;BME280;48553;50.766;2.900;2023-02-01T11:31:12;101706.50;;;9.19;81.36
60852;BME280;48553;50.766;2.900;2023-02-01T11:34:17;101697.38;;;9.10;80.97
60852;BME280;48553;50.766;2.900;2023-02-01T11:40:50;101693.72;;;9.15;81.14
60852;BME280;48553;50.766;2.900;2023-02-01T11:43:59;101696.69;;;9.18;81.12
60852;BME280;48553;50.766;2.900;2023-02-01T11:47:39;101682.38;;;9.22;81.08
60852;BME280;48553;50.766;2.900;2023-02-01T12:41:08;101634.34;;;9.93;78.89
60852;BME280;48553;50.766;2.900;2023-02-01T12:44:31;101640.34;;;9.95;78.79
60852;BME280;48553;50.766;2.900;2023-02-01T12:47:39;101639.31;;;9.91;78.88
60852;BME280;48553;50.766;2.900;2023-02-01T12:50:53;101623.69;;;9.92;78.64
60852;BME280;48553;50.766;2.900;2023-02-01T12:54:06;101629.50;;;9.90;77.98
60852;BME280;48553;50.766;2.900;2023-02-01T12:57:33;101634.22;;;9.98;78.58
60852;BME280;48553;50.766;2.900;2023-02-01T13:00:44;101626.63;;;9.95;78.90
60852;BME280;48553;50.766;2.900;2023-02-01T13:07:21;101626.13;;;9.93;79.31
60852;BME280;48553;50.766;2.900;2023-02-01T13:17:15;101622.69;;;9.88;77.65
60852;BME280;48553;50.766;2.900;2023-02-01T13:23:34;101621.28;;;9.90;78.04
60852;BME280;48553;50.766;2.900;2023-02-01T13:26:35;101631.91;;;9.92;78.05
60852;BME280;48553;50.766;2.900;2023-02-01T13:29:36;101616.78;;;9.94;77.51
60852;BME280;48553;50.766;2.900;2023-02-01T13:37:23;101624.81;;;9.91;76.08
60852;BME280;48553;50.766;2.900;2023-02-01T13:43:29;101622.44;;;9.75;78.16
60852;BME280;48553;50.766;2.900;2023-02-01T13:46:41;101634.44;;;9.66;77.62
60852;BME280;48553;50.766;2.900;2023-02-01T13:49:43;101630.19;;;9.59;78.00
60852;BME280;48553;50.766;2.900;2023-02-01T13:52:44;101625.00;;;9.58;78.79
60852;BME280;48553;50.766;2.900;2023-02-01T13:55:55;101630.47;;;9.58;78.60
60852;BME280;48553;50.766;2.900;2023-02-01T13:58:56;101628.06;;;9.56;77.93
60852;BME280;48553;50.766;2.900;2023-02-01T14:08:41;101631.41;;;9.53;78.58
60852;BME280;48553;50.766;2.900;2023-02-01T14:11:53;101630.81;;;9.56;78.37
60852;BME280;48553;50.766;2.900;2023-02-01T14:15:21;101643.88;;;9.59;78.53
60852;BME280;48553;50.766;2.900;2023-02-01T14:21:47;101647.22;;;9.56;77.72
60852;BME280;48553;50.766;2.900;2023-02-01T14:24:53;101653.63;;;9.52;77.46
60852;BME280;48553;50.766;2.900;2023-02-01T14:27:55;101663.03;;;9.46;78.23
60852;BME280;48553;50.766;2.900;2023-02-01T14:30:57;101659.59;;;9.40;79.30
60852;BME280;48553;50.766;2.900;2023-02-01T14:34:01;101666.81;;;9.36;79.23
60852;BME280;48553;50.766;2.900;2023-02-01T14:37:05;101675.59;;;9.33;78.84
60852;BME280;48553;50.766;2.900;2023-02-01T14:43:12;101676.31;;;9.25;79.55
60852;BME280;48553;50.766;2.900;2023-02-01T14:46:12;101667.72;;;9.17;79.52
60852;BME280;48553;50.766;2.900;2023-02-01T14:49:13;101672.16;;;9.13;79.87
60852;BME280;48553;50.766;2.900;2023-02-01T14:52:17;101669.22;;;9.10;80.93
60852;BME280;48553;50.766;2.900;2023-02-01T14:55:48;101668.53;;;9.04;80.56
60852;BME280;48553;50.766;2.900;2023-02-01T15:01:58;101672.44;;;8.98;81.03
60852;BME280;48553;50.766;2.900;2023-02-01T15:04:58;101667.59;;;8.95;80.53
60852;BME280;48553;50.766;2.900;2023-02-01T15:08:19;101667.38;;;8.91;80.86
60852;BME280;48553;50.766;2.900;2023-02-01T15:11:21;101660.88;;;8.87;80.71
60852;BME280;48553;50.766;2.900;2023-02-01T15:14:22;101669.69;;;8.84;80.62
60852;BME280;48553;50.766;2.900;2023-02-01T15:17:27;101685.88;;;8.81;80.01
60852;BME280;48553;50.766;2.900;2023-02-01T15:20:33;101687.59;;;8.76;80.56
60852;BME280;48553;50.766;2.900;2023-02-01T15:23:34;101677.25;;;8.73;81.12
60852;BME280;48553;50.766;2.900;2023-02-01T15:26:34;101677.06;;;8.70;80.80
60852;BME280;48553;50.766;2.900;2023-02-01T15:29:35;101686.97;;;8.66;80.70
60852;BME280;48553;50.766;2.900;2023-02-01T15:32:38;101683.50;;;8.60;80.72
60852;BME280;48553;50.766;2.900;2023-02-01T15:38:44;101662.25;;;8.57;80.76
60852;BME280;48553;50.766;2.900;2023-02-01T15:41:47;101662.53;;;8.55;80.79
60852;BME280;48553;50.766;2.900;2023-02-01T15:44:48;101662.03;;;8.53;80.90
60852;BME280;48553;50.766;2.900;2023-02-01T15:47:50;101654.72;;;8.49;81.28
60852;BME280;48553;50.766;2.900;2023-02-01T15:50:53;101654.53;;;8.45;81.64
60852;BME280;48553;50.766;2.900;2023-02-01T15:54:16;101648.31;;;8.40;81.62
60852;BME280;48553;50.766;2.900;2023-02-01T15:57:26;101650.84;;;8.36;81.84
60852;BME280;48553;50.766;2.900;2023-02-01T16:00:42;101652.72;;;8.35;82.12
60852;BME280;48553;50.766;2.900;2023-02-01T16:03:44;101659.31;;;8.34;81.99
60852;BME280;48553;50.766;2.900;2023-02-01T16:07:21;101660.22;;;8.30;82.39
60852;BME280;48553;50.766;2.900;2023-02-01T16:10:27;101663.22;;;8.28;82.34
60852;BME280;48553;50.766;2.900;2023-02-01T16:13:28;101674.75;;;8.25;82.41
60852;BME280;48553;50.766;2.900;2023-02-01T16:16:29;101678.00;;;8.27;82.55
60852;BME280;48553;50.766;2.900;2023-02-01T16:19:29;101676.25;;;8.18;82.52
60852;BME280;48553;50.766;2.900;2023-02-01T16:22:30;101676.25;;;8.18;82.69
60852;BME280;48553;50.766;2.900;2023-02-01T16:25:31;101684.72;;;8.16;82.78
60852;BME280;48553;50.766;2.900;2023-02-01T16:28:31;101687.22;;;8.12;83.22
60852;BME280;48553;50.766;2.900;2023-02-01T16:31:35;101688.06;;;8.13;83.07
60852;BME280;48553;50.766;2.900;2023-02-01T16:34:36;101687.53;;;8.11;83.23
60852;BME280;48553;50.766;2.900;2023-02-01T16:37:37;101682.13;;;8.06;83.17
60852;BME280;48553;50.766;2.900;2023-02-01T16:40:37;101681.94;;;8.02;83.30
60852;BME280;48553;50.766;2.900;2023-02-01T16:43:38;101696.38;;;8.03;83.60
60852;BME280;48553;50.766;2.900;2023-02-01T16:46:41;101699.41;;;8.01;83.78
60852;BME280;48553;50.766;2.900;2023-02-01T16:49:43;101698.59;;;8.01;83.85
60852;BME280;48553;50.766;2.900;2023-02-01T16:52:43;101706.28;;;7.99;83.83
60852;BME280;48553;50.766;2.900;2023-02-01T16:55:44;101708.47;;;7.97;83.93
60852;BME280;48553;50.766;2.900;2023-02-01T16:58:47;101711.81;;;7.93;84.04
60852;BME280;48553;50.766;2.900;2023-02-01T17:01:47;101716.97;;;7.95;83.92
60852;BME280;48553;50.766;2.900;2023-02-01T17:04:48;101710.25;;;7.87;84.21
60852;BME280;48553;50.766;2.900;2023-02-01T17:07:49;101714.63;;;7.88;84.45
60852;BME280;48553;50.766;2.900;2023-02-01T17:10:49;101718.75;;;7.86;84.82
60852;BME280;48553;50.766;2.900;2023-02-01T17:13:50;101722.56;;;7.85;84.79
60852;BME280;48553;50.766;2.900;2023-02-01T17:16:50;101720.13;;;7.83;84.76
60852;BME280;48553;50.766;2.900;2023-02-01T17:19:51;101728.38;;;7.78;85.23
60852;BME280;48553;50.766;2.900;2023-02-01T17:22:53;101727.28;;;7.79;85.15
60852;BME280;48553;50.766;2.900;2023-02-01T17:25:53;101732.75;;;7.79;85.26
60852;BME280;48553;50.766;2.900;2023-02-01T17:28:54;101731.19;;;7.73;85.16
60852;BME280;48553;50.766;2.900;2023-02-01T17:31:55;101729.78;;;7.76;85.31
60852;BME280;48553;50.766;2.900;2023-02-01T17:34:55;101742.09;;;7.73;85.52
60852;BME280;48553;50.766;2.900;2023-02-01T17:37:57;101745.91;;;7.72;85.61
60852;BME280;48553;50.766;2.900;2023-02-01T17:40:58;101754.94;;;7.72;85.94
60852;BME280;48553;50.766;2.900;2023-02-01T17:43:58;101753.81;;;7.73;85.62
60852;BME280;48553;50.766;2.900;2023-02-01T17:46:58;101756.00;;;7.71;85.80
60852;BME280;48553;50.766;2.900;2023-02-01T17:49:59;101762.28;;;7.72;85.90
60852;BME280;48553;50.766;2.900;2023-02-01T17:52:59;101760.16;;;7.69;86.19
60852;BME280;48553;50.766;2.900;2023-02-01T17:56:00;101760.94;;;7.69;86.30
60852;BME280;48553;50.766;2.900;2023-02-01T17:59:00;101760.16;;;7.69;86.48
60852;BME280;48553;50.766;2.900;2023-02-01T18:02:01;101759.63;;;7.67;86.47
60852;BME280;48553;50.766;2.900;2023-02-01T18:05:01;101761.53;;;7.66;86.43
60852;BME280;48553;50.766;2.900;2023-02-01T18:08:02;101758.81;;;7.66;86.49
60852;BME280;48553;50.766;2.900;2023-02-01T18:11:02;101758.28;;;7.64;86.56
60852;BME280;48553;50.766;2.900;2023-02-01T18:14:03;101758.88;;;7.61;87.07
60852;BME280;48553;50.766;2.900;2023-02-01T18:17:03;101764.34;;;7.61;86.71
60852;BME280;48553;50.766;2.900;2023-02-01T18:20:04;101757.25;;;7.60;86.81
60852;BME280;48553;50.766;2.900;2023-02-01T18:23:05;101759.97;;;7.60;86.83
60852;BME280;48553;50.766;2.900;2023-02-01T18:26:10;101759.16;;;7.60;87.11
60852;BME280;48553;50.766;2.900;2023-02-01T18:29:11;101752.09;;;7.59;87.15
60852;BME280;48553;50.766;2.900;2023-02-01T18:32:11;101752.09;;;7.59;87.32
60852;BME280;48553;50.766;2.900;2023-02-01T18:35:32;101755.91;;;7.58;87.09
60852;BME280;48553;50.766;2.900;2023-02-01T18:38:32;101754.28;;;7.57;87.16
60852;BME280;48553;50.766;2.900;2023-02-01T18:41:33;101752.09;;;7.59;87.39